sensor_id;sensor_type;location;lat;lon;timestamp;temperature;humidity
55830;DHT22;41759;53.330;6.002;2023-09-19T00:01:34;14.50;99.90
55830;DHT22;41759;53.330;6.002;2023-09-19T00:04:01;14.60;99.90
55830;DHT22;41759;53.330;6.002;2023-09-19T00:06:30;14.50;99.90
55830;DHT22;41759;53.330;6.002;2023-09-19T00:09:00;14.50;99.90
55830;DHT22;41759;53.330;6.002;2023-09-19T00:11:26;14.50;99.90
55830;DHT22;41759;53.330;6.002;2023-09-19T00:13:52;14.50;99.90
55830;DHT22;41759;53.330;6.002;2023-09-19T00:16:18;14.50;99.90
55830;DHT22;41759;53.330;6.002;2023-09-19T00:18:45;14.40;99.90
55830;DHT22;41759;53.330;6.002;2023-09-19T00:21:10;14.40;99.90
55830;DHT22;41759;53.330;6.002;2023-09-19T00:23:37;14.40;99.90
55830;DHT22;41759;53.330;6.002;2023-09-19T00:26:02;14.40;99.90
55830;DHT22;41759;53.330;6.002;2023-09-19T00:28:29;14.40;99.90
55830;DHT22;41759;53.330;6.002;2023-09-19T00:30:55;14.40;99.90
55830;DHT22;41759;53.330;6.002;2023-09-19T00:33:22;14.40;99.90
55830;DHT22;41759;53.330;6.002;2023-09-19T00:35:52;14.40;99.90
55830;DHT22;41759;53.330;6.002;2023-09-19T00:38:19;14.40;99.90
55830;DHT22;41759;53.330;6.002;2023-09-19T00:40:49;14.40;99.90
55830;DHT22;41759;53.330;6.002;2023-09-19T00:43:16;14.40;99.90
55830;DHT22;41759;53.330;6.002;2023-09-19T00:45:44;14.40;99.90
55830;DHT22;41759;53.330;6.002;2023-09-19T00:48:11;14.40;99.90
55830;DHT22;41759;53.330;6.002;2023-09-19T00:50:38;14.40;99.90
55830;DHT22;41759;53.330;6.002;2023-09-19T00:53:08;14.40;99.90
55830;DHT22;41759;53.330;6.002;2023-09-19T00:55:38;14.40;99.90
55830;DHT22;41759;53.330;6.002;2023-09-19T00:58:04;14.40;99.90
55830;DHT22;41759;53.330;6.002;2023-09-19T01:00:33;14.40;99.90
55830;DHT22;41759;53.330;6.002;2023-09-19T01:03:00;14.30;99.90
55830;DHT22;41759;53.330;6.002;2023-09-19T01:05:29;14.30;99.90
55830;DHT22;41759;53.330;6.002;2023-09-19T01:07:55;13.10;99.90
55830;DHT22;41759;53.330;6.002;2023-09-19T01:10:22;14.30;99.90
55830;DHT22;41759;53.330;6.002;2023-09-19T01:31:25;14.20;99.90
55830;DHT22;41759;53.330;6.002;2023-09-19T01:36:34;14.10;99.90
55830;DHT22;41759;53.330;6.002;2023-09-19T01:39:04;14.10;99.90
55830;DHT22;41759;53.330;6.002;2023-09-19T01:41:58;14.10;99.90
55830;DHT22;41759;53.330;6.002;2023-09-19T01:44:54;14.10;99.90
55830;DHT22;41759;53.330;6.002;2023-09-19T01:47:44;14.00;99.90
55830;DHT22;41759;53.330;6.002;2023-09-19T01:50:29;14.10;99.90
55830;DHT22;41759;53.330;6.002;2023-09-19T01:53:21;14.00;99.90
55830;DHT22;41759;53.330;6.002;2023-09-19T01:55:50;14.00;99.90
55830;DHT22;41759;53.330;6.002;2023-09-19T02:00:52;14.00;99.90
55830;DHT22;41759;53.330;6.002;2023-09-19T02:03:20;13.90;99.90
55830;DHT22;41759;53.330;6.002;2023-09-19T02:05:51;14.00;99.90
55830;DHT22;41759;53.330;6.002;2023-09-19T02:08:20;14.00;99.90
55830;DHT22;41759;53.330;6.002;2023-09-19T02:10:46;14.00;99.90
55830;DHT22;41759;53.330;6.002;2023-09-19T02:13:21;14.00;99.90
55830;DHT22;41759;53.330;6.002;2023-09-19T02:15:50;14.00;99.90
55830;DHT22;41759;53.330;6.002;2023-09-19T02:18:15;13.90;99.90
55830;DHT22;41759;53.330;6.002;2023-09-19T02:20:42;14.00;99.90
55830;DHT22;41759;53.330;6.002;2023-09-19T02:23:09;14.00;99.90
55830;DHT22;41759;53.330;6.002;2023-09-19T02:25:35;14.00;99.90
55830;DHT22;41759;53.330;6.002;2023-09-19T02:28:02;14.00;99.90
55830;DHT22;41759;53.330;6.002;2023-09-19T02:30:29;14.00;99.90
55830;DHT22;41759;53.330;6.002;2023-09-19T02:32:55;14.00;99.90
55830;DHT22;41759;53.330;6.002;2023-09-19T02:35:26;13.90;99.90
55830;DHT22;41759;53.330;6.002;2023-09-19T02:37:53;14.00;99.90
55830;DHT22;41759;53.330;6.002;2023-09-19T02:40:19;14.00;99.90
55830;DHT22;41759;53.330;6.002;2023-09-19T02:42:46;14.00;99.90
55830;DHT22;41759;53.330;6.002;2023-09-19T02:45:18;14.00;99.90
55830;DHT22;41759;53.330;6.002;2023-09-19T02:47:44;12.80;99.90
55830;DHT22;41759;53.330;6.002;2023-09-19T02:50:10;14.00;99.90
55830;DHT22;41759;53.330;6.002;2023-09-19T02:52:37;14.00;99.90
55830;DHT22;41759;53.330;6.002;2023-09-19T02:55:03;14.00;99.90
55830;DHT22;41759;53.330;6.002;2023-09-19T02:57:31;14.00;99.90
55830;DHT22;41759;53.330;6.002;2023-09-19T02:59:59;13.90;99.90
55830;DHT22;41759;53.330;6.002;2023-09-19T03:02:26;13.90;99.90
55830;DHT22;41759;53.330;6.002;2023-09-19T03:04:53;13.70;99.90
55830;DHT22;41759;53.330;6.002;2023-09-19T03:07:19;13.70;99.90
55830;DHT22;41759;53.330;6.002;2023-09-19T03:09:45;14.00;99.90
55830;DHT22;41759;53.330;6.002;2023-09-19T03:12:11;13.60;99.90
55830;DHT22;41759;53.330;6.002;2023-09-19T03:14:42;14.00;99.90
55830;DHT22;41759;53.330;6.002;2023-09-19T03:17:08;14.00;99.90
55830;DHT22;41759;53.330;6.002;2023-09-19T03:19:37;13.90;99.90
55830;DHT22;41759;53.330;6.002;2023-09-19T03:22:04;13.90;99.90
55830;DHT22;41759;53.330;6.002;2023-09-19T03:24:31;13.90;99.90
55830;DHT22;41759;53.330;6.002;2023-09-19T03:26:59;14.00;99.90
55830;DHT22;41759;53.330;6.002;2023-09-19T03:29:25;14.00;99.90
55830;DHT22;41759;53.330;6.002;2023-09-19T03:31:52;13.90;99.90
55830;DHT22;41759;53.330;6.002;2023-09-19T03:34:26;13.90;99.90
55830;DHT22;41759;53.330;6.002;2023-09-19T03:36:52;13.90;99.90
55830;DHT22;41759;53.330;6.002;2023-09-19T03:39:18;14.30;99.90
55830;DHT22;41759;53.330;6.002;2023-09-19T03:41:43;13.90;99.90
55830;DHT22;41759;53.330;6.002;2023-09-19T03:44:10;13.90;99.90
55830;DHT22;41759;53.330;6.002;2023-09-19T03:46:36;14.00;99.90
55830;DHT22;41759;53.330;6.002;2023-09-19T03:49:03;13.90;99.90
55830;DHT22;41759;53.330;6.002;2023-09-19T03:51:29;14.00;99.90
55830;DHT22;41759;53.330;6.002;2023-09-19T03:53:57;14.00;99.90
55830;DHT22;41759;53.330;6.002;2023-09-19T03:56:23;13.90;99.90
55830;DHT22;41759;53.330;6.002;2023-09-19T03:58:50;13.90;99.90
55830;DHT22;41759;53.330;6.002;2023-09-19T04:01:16;13.60;99.90
55830;DHT22;41759;53.330;6.002;2023-09-19T04:03:43;13.90;99.90
55830;DHT22;41759;53.330;6.002;2023-09-19T04:06:16;13.90;99.90
55830;DHT22;41759;53.330;6.002;2023-09-19T04:08:43;13.90;99.90
55830;DHT22;41759;53.330;6.002;2023-09-19T04:11:10;14.40;99.90
55830;DHT22;41759;53.330;6.002;2023-09-19T04:13:36;13.80;99.90
55830;DHT22;41759;53.330;6.002;2023-09-19T04:16:02;13.80;99.90
55830;DHT22;41759;53.330;6.002;2023-09-19T04:18:30;13.90;99.90
55830;DHT22;41759;53.330;6.002;2023-09-19T04:20:59;13.90;99.90
55830;DHT22;41759;53.330;6.002;2023-09-19T04:23:34;13.90;99.90
55830;DHT22;41759;53.330;6.002;2023-09-19T04:26:04;13.90;99.90
55830;DHT22;41759;53.330;6.002;2023-09-19T04:28:31;13.90;99.90
55830;DHT22;41759;53.330;6.002;2023-09-19T04:30:58;13.90;99.90
55830;DHT22;41759;53.330;6.002;2023-09-19T04:33:27;13.00;99.90
55830;DHT22;41759;53.330;6.002;2023-09-19T04:35:56;14.00;99.90
55830;DHT22;41759;53.330;6.002;2023-09-19T04:38:22;14.00;99.90
55830;DHT22;41759;53.330;6.002;2023-09-19T04:40:49;14.00;99.90
55830;DHT22;41759;53.330;6.002;2023-09-19T04:43:14;14.00;99.90
55830;DHT22;41759;53.330;6.002;2023-09-19T04:45:54;14.00;99.90
55830;DHT22;41759;53.330;6.002;2023-09-19T04:48:24;14.10;99.90
55830;DHT22;41759;53.330;6.002;2023-09-19T04:50:52;14.10;99.90
55830;DHT22;41759;53.330;6.002;2023-09-19T04:53:19;14.10;99.90
55830;DHT22;41759;53.330;6.002;2023-09-19T04:55:50;14.00;99.90
55830;DHT22;41759;53.330;6.002;2023-09-19T04:58:18;13.10;99.90
55830;DHT22;41759;53.330;6.002;2023-09-19T05:00:45;14.10;99.90
55830;DHT22;41759;53.330;6.002;2023-09-19T05:03:10;14.10;99.90
55830;DHT22;41759;53.330;6.002;2023-09-19T05:05:36;14.10;99.90
55830;DHT22;41759;53.330;6.002;2023-09-19T05:08:04;14.10;99.90
55830;DHT22;41759;53.330;6.002;2023-09-19T05:10:32;14.10;99.90
55830;DHT22;41759;53.330;6.002;2023-09-19T05:12:57;14.10;99.90
55830;DHT22;41759;53.330;6.002;2023-09-19T05:15:23;14.10;99.90
55830;DHT22;41759;53.330;6.002;2023-09-19T05:17:50;14.20;99.90
55830;DHT22;41759;53.330;6.002;2023-09-19T05:20:17;14.20;99.90
55830;DHT22;41759;53.330;6.002;2023-09-19T05:23:10;14.20;99.90
55830;DHT22;41759;53.330;6.002;2023-09-19T05:25:39;14.20;99.90
55830;DHT22;41759;53.330;6.002;2023-09-19T05:28:07;14.20;99.90
55830;DHT22;41759;53.330;6.002;2023-09-19T05:30:33;14.20;99.90
55830;DHT22;41759;53.330;6.002;2023-09-19T05:33:02;14.20;99.90
55830;DHT22;41759;53.330;6.002;2023-09-19T05:35:28;14.20;99.90
55830;DHT22;41759;53.330;6.002;2023-09-19T05:37:54;15.20;99.90
55830;DHT22;41759;53.330;6.002;2023-09-19T05:40:21;14.20;99.90
55830;DHT22;41759;53.330;6.002;2023-09-19T05:42:47;14.20;99.90
55830;DHT22;41759;53.330;6.002;2023-09-19T05:45:14;14.20;99.90
55830;DHT22;41759;53.330;6.002;2023-09-19T05:47:40;14.20;99.90
55830;DHT22;41759;53.330;6.002;2023-09-19T05:50:10;14.30;99.90
55830;DHT22;41759;53.330;6.002;2023-09-19T05:52:36;14.30;99.90
55830;DHT22;41759;53.330;6.002;2023-09-19T05:55:04;14.30;99.90
55830;DHT22;41759;53.330;6.002;2023-09-19T05:57:32;14.30;99.90
55830;DHT22;41759;53.330;6.002;2023-09-19T05:59:58;14.30;99.90
55830;DHT22;41759;53.330;6.002;2023-09-19T06:02:24;14.30;99.90
55830;DHT22;41759;53.330;6.002;2023-09-19T06:04:52;14.30;99.90
55830;DHT22;41759;53.330;6.002;2023-09-19T06:07:18;14.30;99.90
55830;DHT22;41759;53.330;6.002;2023-09-19T06:09:44;14.30;99.90
55830;DHT22;41759;53.330;6.002;2023-09-19T06:12:10;14.30;99.90
55830;DHT22;41759;53.330;6.002;2023-09-19T06:14:39;14.30;99.90
55830;DHT22;41759;53.330;6.002;2023-09-19T06:17:05;14.30;99.90
55830;DHT22;41759;53.330;6.002;2023-09-19T06:19:32;14.30;99.90
55830;DHT22;41759;53.330;6.002;2023-09-19T06:21:58;14.40;99.90
55830;DHT22;41759;53.330;6.002;2023-09-19T06:24:25;14.40;99.90
55830;DHT22;41759;53.330;6.002;2023-09-19T06:26:51;14.40;99.90
55830;DHT22;41759;53.330;6.002;2023-09-19T06:29:18;14.40;99.90
55830;DHT22;41759;53.330;6.002;2023-09-19T06:31:46;14.40;99.90
55830;DHT22;41759;53.330;6.002;2023-09-19T06:34:12;14.40;99.90
55830;DHT22;41759;53.330;6.002;2023-09-19T06:36:41;14.40;99.90
55830;DHT22;41759;53.330;6.002;2023-09-19T06:39:07;14.40;99.90
55830;DHT22;41759;53.330;6.002;2023-09-19T06:41:37;14.50;99.90
55830;DHT22;41759;53.330;6.002;2023-09-19T06:44:04;14.40;99.90
55830;DHT22;41759;53.330;6.002;2023-09-19T06:46:31;14.50;99.90
55830;DHT22;41759;53.330;6.002;2023-09-19T06:49:03;14.50;99.90
55830;DHT22;41759;53.330;6.002;2023-09-19T06:51:32;14.50;99.90
55830;DHT22;41759;53.330;6.002;2023-09-19T06:54:01;14.50;99.90
55830;DHT22;41759;53.330;6.002;2023-09-19T06:56:27;14.60;99.90
55830;DHT22;41759;53.330;6.002;2023-09-19T06:58:52;14.60;99.90
55830;DHT22;41759;53.330;6.002;2023-09-19T07:01:18;14.60;99.90
55830;DHT22;41759;53.330;6.002;2023-09-19T07:03:44;14.70;99.90
55830;DHT22;41759;53.330;6.002;2023-09-19T07:06:11;14.70;99.90
55830;DHT22;41759;53.330;6.002;2023-09-19T07:08:37;14.70;99.90
55830;DHT22;41759;53.330;6.002;2023-09-19T07:11:04;14.80;99.90
55830;DHT22;41759;53.330;6.002;2023-09-19T07:13:31;14.80;99.90
55830;DHT22;41759;53.330;6.002;2023-09-19T07:15:58;14.90;99.90
55830;DHT22;41759;53.330;6.002;2023-09-19T07:18:25;14.90;99.90
55830;DHT22;41759;53.330;6.002;2023-09-19T07:20:51;14.90;99.90
55830;DHT22;41759;53.330;6.002;2023-09-19T07:23:27;15.00;99.90
55830;DHT22;41759;53.330;6.002;2023-09-19T07:25:57;15.00;99.90
55830;DHT22;41759;53.330;6.002;2023-09-19T07:28:24;15.00;99.90
55830;DHT22;41759;53.330;6.002;2023-09-19T07:30:50;15.10;99.90
55830;DHT22;41759;53.330;6.002;2023-09-19T07:33:15;15.10;99.90
55830;DHT22;41759;53.330;6.002;2023-09-19T07:35:45;15.20;99.90
55830;DHT22;41759;53.330;6.002;2023-09-19T07:38:11;15.30;99.90
55830;DHT22;41759;53.330;6.002;2023-09-19T07:40:37;15.30;99.90
55830;DHT22;41759;53.330;6.002;2023-09-19T07:43:03;15.50;99.90
55830;DHT22;41759;53.330;6.002;2023-09-19T07:45:31;15.50;99.90
55830;DHT22;41759;53.330;6.002;2023-09-19T07:47:57;15.60;99.90
55830;DHT22;41759;53.330;6.002;2023-09-19T07:50:23;15.60;99.90
55830;DHT22;41759;53.330;6.002;2023-09-19T07:52:49;15.60;99.90
55830;DHT22;41759;53.330;6.002;2023-09-19T07:55:19;15.60;99.90
55830;DHT22;41759;53.330;6.002;2023-09-19T07:57:49;15.70;99.90
55830;DHT22;41759;53.330;6.002;2023-09-19T08:00:15;15.80;99.90
55830;DHT22;41759;53.330;6.002;2023-09-19T08:02:42;15.90;99.90
55830;DHT22;41759;53.330;6.002;2023-09-19T08:05:09;16.10;99.90
55830;DHT22;41759;53.330;6.002;2023-09-19T08:07:36;16.20;99.90
55830;DHT22;41759;53.330;6.002;2023-09-19T08:10:03;16.40;99.90
55830;DHT22;41759;53.330;6.002;2023-09-19T08:12:29;16.50;99.90
55830;DHT22;41759;53.330;6.002;2023-09-19T08:14:55;16.60;99.90
55830;DHT22;41759;53.330;6.002;2023-09-19T08:17:21;16.80;99.90
55830;DHT22;41759;53.330;6.002;2023-09-19T08:19:49;16.90;99.90
55830;DHT22;41759;53.330;6.002;2023-09-19T08:22:19;17.00;99.90
55830;DHT22;41759;53.330;6.002;2023-09-19T08:24:45;17.10;99.90
55830;DHT22;41759;53.330;6.002;2023-09-19T08:27:11;17.20;99.90
55830;DHT22;41759;53.330;6.002;2023-09-19T08:29:38;15.90;99.90
55830;DHT22;41759;53.330;6.002;2023-09-19T08:32:04;17.20;99.90
55830;DHT22;41759;53.330;6.002;2023-09-19T08:34:30;17.20;99.90
55830;DHT22;41759;53.330;6.002;2023-09-19T08:36:58;17.20;99.90
55830;DHT22;41759;53.330;6.002;2023-09-19T08:39:25;17.10;99.90
55830;DHT22;41759;53.330;6.002;2023-09-19T08:41:58;17.10;99.90
55830;DHT22;41759;53.330;6.002;2023-09-19T08:44:25;17.00;99.90
55830;DHT22;41759;53.330;6.002;2023-09-19T08:46:55;16.90;99.90
55830;DHT22;41759;53.330;6.002;2023-09-19T08:52:32;16.70;99.90
55830;DHT22;41759;53.330;6.002;2023-09-19T08:55:02;16.60;99.90
55830;DHT22;41759;53.330;6.002;2023-09-19T08:57:33;16.60;99.90
55830;DHT22;41759;53.330;6.002;2023-09-19T09:00:04;16.60;99.90
55830;DHT22;41759;53.330;6.002;2023-09-19T09:02:38;16.70;99.90
55830;DHT22;41759;53.330;6.002;2023-09-19T09:05:08;16.80;99.90
55830;DHT22;41759;53.330;6.002;2023-09-19T09:07:38;16.90;99.90
55830;DHT22;41759;53.330;6.002;2023-09-19T09:10:04;16.90;99.90
55830;DHT22;41759;53.330;6.002;2023-09-19T09:12:30;17.00;99.90
55830;DHT22;41759;53.330;6.002;2023-09-19T09:14:56;17.00;99.90
55830;DHT22;41759;53.330;6.002;2023-09-19T09:17:26;18.10;99.90
55830;DHT22;41759;53.330;6.002;2023-09-19T09:19:53;17.10;99.90
55830;DHT22;41759;53.330;6.002;2023-09-19T09:22:19;17.20;99.90
55830;DHT22;41759;53.330;6.002;2023-09-19T09:24:59;17.20;99.90
55830;DHT22;41759;53.330;6.002;2023-09-19T09:27:29;17.20;99.90
55830;DHT22;41759;53.330;6.002;2023-09-19T09:29:55;17.20;99.90
55830;DHT22;41759;53.330;6.002;2023-09-19T09:32:29;17.30;99.90
55830;DHT22;41759;53.330;6.002;2023-09-19T09:34:56;17.30;99.90
55830;DHT22;41759;53.330;6.002;2023-09-19T09:37:23;17.30;99.90
55830;DHT22;41759;53.330;6.002;2023-09-19T09:39:59;17.40;99.90
55830;DHT22;41759;53.330;6.002;2023-09-19T09:42:44;17.40;99.90
55830;DHT22;41759;53.330;6.002;2023-09-19T09:45:21;17.50;99.90
55830;DHT22;41759;53.330;6.002;2023-09-19T09:47:59;17.40;99.90
55830;DHT22;41759;53.330;6.002;2023-09-19T09:50:35;17.40;99.90
55830;DHT22;41759;53.330;6.002;2023-09-19T09:53:21;17.40;99.90
55830;DHT22;41759;53.330;6.002;2023-09-19T09:56:07;17.40;99.90
55830;DHT22;41759;53.330;6.002;2023-09-19T09:58:52;17.40;99.90
55830;DHT22;41759;53.330;6.002;2023-09-19T10:01:21;17.40;99.90
55830;DHT22;41759;53.330;6.002;2023-09-19T10:03:57;17.40;99.90
55830;DHT22;41759;53.330;6.002;2023-09-19T10:06:23;17.50;99.90
55830;DHT22;41759;53.330;6.002;2023-09-19T10:09:08;17.50;99.90
55830;DHT22;41759;53.330;6.002;2023-09-19T10:12:05;17.60;99.90
55830;DHT22;41759;53.330;6.002;2023-09-19T10:14:38;17.60;99.90
55830;DHT22;41759;53.330;6.002;2023-09-19T10:17:18;17.60;99.90
55830;DHT22;41759;53.330;6.002;2023-09-19T10:19:55;17.60;99.90
55830;DHT22;41759;53.330;6.002;2023-09-19T10:22:26;17.50;99.90
55830;DHT22;41759;53.330;6.002;2023-09-19T10:24:56;17.60;99.90
55830;DHT22;41759;53.330;6.002;2023-09-19T10:27:25;17.70;99.90
55830;DHT22;41759;53.330;6.002;2023-09-19T10:29:52;17.70;99.90
55830;DHT22;41759;53.330;6.002;2023-09-19T10:32:23;17.80;99.90
55830;DHT22;41759;53.330;6.002;2023-09-19T10:34:49;17.90;99.90
55830;DHT22;41759;53.330;6.002;2023-09-19T10:37:21;17.90;99.90
55830;DHT22;41759;53.330;6.002;2023-09-19T10:39:52;17.90;99.90
55830;DHT22;41759;53.330;6.002;2023-09-19T10:42:20;17.90;99.90
55830;DHT22;41759;53.330;6.002;2023-09-19T10:44:50;17.80;99.90
55830;DHT22;41759;53.330;6.002;2023-09-19T10:47:20;17.90;99.90
55830;DHT22;41759;53.330;6.002;2023-09-19T10:49:47;17.90;99.90
55830;DHT22;41759;53.330;6.002;2023-09-19T10:52:15;17.90;99.90
55830;DHT22;41759;53.330;6.002;2023-09-19T10:54:52;17.80;99.90
55830;DHT22;41759;53.330;6.002;2023-09-19T10:57:25;17.80;99.90
55830;DHT22;41759;53.330;6.002;2023-09-19T11:00:07;17.70;99.90
55830;DHT22;41759;53.330;6.002;2023-09-19T11:03:19;17.60;99.90
55830;DHT22;41759;53.330;6.002;2023-09-19T11:08:46;17.40;99.90
55830;DHT22;41759;53.330;6.002;2023-09-19T11:25:42;17.50;99.90
55830;DHT22;41759;53.330;6.002;2023-09-19T11:30:43;17.50;99.90
55830;DHT22;41759;53.330;6.002;2023-09-19T11:33:24;17.60;99.90
55830;DHT22;41759;53.330;6.002;2023-09-19T11:49:19;17.40;99.90
55830;DHT22;41759;53.330;6.002;2023-09-19T11:51:51;17.30;99.90
55830;DHT22;41759;53.330;6.002;2023-09-19T11:54:20;17.30;99.90
55830;DHT22;41759;53.330;6.002;2023-09-19T11:56:51;17.20;99.90
55830;DHT22;41759;53.330;6.002;2023-09-19T11:59:23;17.10;99.90
55830;DHT22;41759;53.330;6.002;2023-09-19T12:01:55;17.00;99.90
55830;DHT22;41759;53.330;6.002;2023-09-19T12:04:40;16.90;99.90
55830;DHT22;41759;53.330;6.002;2023-09-19T12:07:10;16.80;99.90
55830;DHT22;41759;53.330;6.002;2023-09-19T12:09:48;16.70;99.90
55830;DHT22;41759;53.330;6.002;2023-09-19T12:12:21;16.70;99.90
55830;DHT22;41759;53.330;6.002;2023-09-19T12:14:50;16.60;99.90
55830;DHT22;41759;53.330;6.002;2023-09-19T12:17:17;16.60;99.90
55830;DHT22;41759;53.330;6.002;2023-09-19T12:19:53;16.60;99.90
55830;DHT22;41759;53.330;6.002;2023-09-19T12:22:19;16.70;99.90
55830;DHT22;41759;53.330;6.002;2023-09-19T12:24:48;16.70;99.90
55830;DHT22;41759;53.330;6.002;2023-09-19T12:27:16;16.80;99.90
55830;DHT22;41759;53.330;6.002;2023-09-19T12:29:49;16.80;99.90
55830;DHT22;41759;53.330;6.002;2023-09-19T12:32:15;16.90;99.90
55830;DHT22;41759;53.330;6.002;2023-09-19T12:34:51;16.90;99.90
55830;DHT22;41759;53.330;6.002;2023-09-19T12:37:21;17.00;99.90
55830;DHT22;41759;53.330;6.002;2023-09-19T12:39:49;17.00;99.90
55830;DHT22;41759;53.330;6.002;2023-09-19T12:42:32;17.20;99.90
55830;DHT22;41759;53.330;6.002;2023-09-19T12:45:01;17.20;99.90
55830;DHT22;41759;53.330;6.002;2023-09-19T12:47:28;17.20;99.90
55830;DHT22;41759;53.330;6.002;2023-09-19T12:50:09;17.20;99.90
55830;DHT22;41759;53.330;6.002;2023-09-19T12:52:52;17.20;99.90
55830;DHT22;41759;53.330;6.002;2023-09-19T12:55:30;17.20;99.90
55830;DHT22;41759;53.330;6.002;2023-09-19T12:58:14;17.20;99.90
55830;DHT22;41759;53.330;6.002;2023-09-19T13:00:45;16.70;99.90
55830;DHT22;41759;53.330;6.002;2023-09-19T13:03:15;17.10;99.90
55830;DHT22;41759;53.330;6.002;2023-09-19T13:06:00;17.00;99.90
55830;DHT22;41759;53.330;6.002;2023-09-19T13:08:28;17.00;99.90
55830;DHT22;41759;53.330;6.002;2023-09-19T13:11:05;16.90;99.90
55830;DHT22;41759;53.330;6.002;2023-09-19T13:13:43;16.80;99.90
55830;DHT22;41759;53.330;6.002;2023-09-19T13:16:15;17.10;99.90
55830;DHT22;41759;53.330;6.002;2023-09-19T13:18:53;16.80;99.90
55830;DHT22;41759;53.330;6.002;2023-09-19T13:21:32;16.80;99.90
55830;DHT22;41759;53.330;6.002;2023-09-19T13:24:24;16.90;99.90
55830;DHT22;41759;53.330;6.002;2023-09-19T13:26:53;17.00;99.90
55830;DHT22;41759;53.330;6.002;2023-09-19T13:29:20;17.00;99.90
55830;DHT22;41759;53.330;6.002;2023-09-19T13:31:52;17.10;99.90
55830;DHT22;41759;53.330;6.002;2023-09-19T13:34:19;17.10;99.90
55830;DHT22;41759;53.330;6.002;2023-09-19T13:36:46;17.10;99.90
55830;DHT22;41759;53.330;6.002;2023-09-19T13:39:15;17.00;99.90
55830;DHT22;41759;53.330;6.002;2023-09-19T13:41:45;17.10;99.90
55830;DHT22;41759;53.330;6.002;2023-09-19T13:44:12;17.20;99.90
55830;DHT22;41759;53.330;6.002;2023-09-19T13:46:38;17.20;99.90
55830;DHT22;41759;53.330;6.002;2023-09-19T13:49:04;17.20;99.90
55830;DHT22;41759;53.330;6.002;2023-09-19T13:51:33;17.30;99.90
55830;DHT22;41759;53.330;6.002;2023-09-19T13:53:58;17.30;99.90
55830;DHT22;41759;53.330;6.002;2023-09-19T13:56:27;17.30;99.90
55830;DHT22;41759;53.330;6.002;2023-09-19T13:58:57;17.30;99.90
55830;DHT22;41759;53.330;6.002;2023-09-19T14:01:23;17.40;99.90
55830;DHT22;41759;53.330;6.002;2023-09-19T14:03:48;17.40;99.90
55830;DHT22;41759;53.330;6.002;2023-09-19T14:06:17;17.40;99.90
55830;DHT22;41759;53.330;6.002;2023-09-19T14:08:43;17.40;99.90
55830;DHT22;41759;53.330;6.002;2023-09-19T14:11:10;17.50;99.90
55830;DHT22;41759;53.330;6.002;2023-09-19T14:13:36;17.40;99.90
55830;DHT22;41759;53.330;6.002;2023-09-19T14:16:06;17.40;99.90
55830;DHT22;41759;53.330;6.002;2023-09-19T14:18:32;17.40;99.90
55830;DHT22;41759;53.330;6.002;2023-09-19T14:21:01;17.30;99.90
55830;DHT22;41759;53.330;6.002;2023-09-19T14:23:28;17.30;99.90
55830;DHT22;41759;53.330;6.002;2023-09-19T14:25:54;17.20;99.90
55830;DHT22;41759;53.330;6.002;2023-09-19T14:28:20;17.20;99.90
55830;DHT22;41759;53.330;6.002;2023-09-19T14:30:46;17.10;99.90
55830;DHT22;41759;53.330;6.002;2023-09-19T14:33:12;17.10;99.90
55830;DHT22;41759;53.330;6.002;2023-09-19T14:35:37;17.10;99.90
55830;DHT22;41759;53.330;6.002;2023-09-19T14:38:04;17.10;99.90
55830;DHT22;41759;53.330;6.002;2023-09-19T14:40:29;17.10;99.90
55830;DHT22;41759;53.330;6.002;2023-09-19T14:42:56;17.10;99.90
55830;DHT22;41759;53.330;6.002;2023-09-19T14:45:22;17.10;99.90
55830;DHT22;41759;53.330;6.002;2023-09-19T14:47:50;17.10;99.90
55830;DHT22;41759;53.330;6.002;2023-09-19T14:50:18;17.10;99.90
55830;DHT22;41759;53.330;6.002;2023-09-19T14:52:44;17.10;99.90
55830;DHT22;41759;53.330;6.002;2023-09-19T14:55:10;17.10;99.90
55830;DHT22;41759;53.330;6.002;2023-09-19T14:57:40;17.10;99.90
55830;DHT22;41759;53.330;6.002;2023-09-19T15:00:06;17.10;99.90
55830;DHT22;41759;53.330;6.002;2023-09-19T15:02:38;17.20;99.90
55830;DHT22;41759;53.330;6.002;2023-09-19T15:05:06;17.20;99.90
55830;DHT22;41759;53.330;6.002;2023-09-19T15:07:37;17.20;99.90
55830;DHT22;41759;53.330;6.002;2023-09-19T15:10:04;17.20;99.90
55830;DHT22;41759;53.330;6.002;2023-09-19T15:12:33;17.20;99.90
55830;DHT22;41759;53.330;6.002;2023-09-19T15:14:58;17.20;99.90
55830;DHT22;41759;53.330;6.002;2023-09-19T15:17:24;17.20;99.90
55830;DHT22;41759;53.330;6.002;2023-09-19T15:19:51;17.30;99.90
55830;DHT22;41759;53.330;6.002;2023-09-19T15:22:17;17.30;99.90
55830;DHT22;41759;53.330;6.002;2023-09-19T15:24:43;17.30;99.90
55830;DHT22;41759;53.330;6.002;2023-09-19T15:27:09;17.30;99.90
55830;DHT22;41759;53.330;6.002;2023-09-19T15:29:34;17.40;99.90
55830;DHT22;41759;53.330;6.002;2023-09-19T15:32:00;17.40;99.90
55830;DHT22;41759;53.330;6.002;2023-09-19T15:34:28;17.40;99.90
55830;DHT22;41759;53.330;6.002;2023-09-19T15:36:55;17.40;99.90
55830;DHT22;41759;53.330;6.002;2023-09-19T15:39:21;17.40;99.90
55830;DHT22;41759;53.330;6.002;2023-09-19T15:41:48;17.40;99.90
55830;DHT22;41759;53.330;6.002;2023-09-19T15:44:19;17.30;99.90
55830;DHT22;41759;53.330;6.002;2023-09-19T15:46:46;17.30;99.90
55830;DHT22;41759;53.330;6.002;2023-09-19T15:49:12;17.30;99.90
55830;DHT22;41759;53.330;6.002;2023-09-19T15:51:38;17.30;99.90
55830;DHT22;41759;53.330;6.002;2023-09-19T15:54:13;17.20;99.90
55830;DHT22;41759;53.330;6.002;2023-09-19T15:56:40;17.20;99.90
55830;DHT22;41759;53.330;6.002;2023-09-19T15:59:09;17.20;99.90
55830;DHT22;41759;53.330;6.002;2023-09-19T16:01:38;17.20;99.90
55830;DHT22;41759;53.330;6.002;2023-09-19T16:04:04;17.20;99.90
55830;DHT22;41759;53.330;6.002;2023-09-19T16:06:31;17.20;99.90
55830;DHT22;41759;53.330;6.002;2023-09-19T16:08:58;17.10;99.90
55830;DHT22;41759;53.330;6.002;2023-09-19T16:11:26;17.10;99.90
55830;DHT22;41759;53.330;6.002;2023-09-19T16:13:52;17.10;99.90
55830;DHT22;41759;53.330;6.002;2023-09-19T16:16:20;17.10;99.90
55830;DHT22;41759;53.330;6.002;2023-09-19T16:18:49;17.00;99.90
55830;DHT22;41759;53.330;6.002;2023-09-19T16:21:15;17.00;99.90
55830;DHT22;41759;53.330;6.002;2023-09-19T16:23:47;17.00;99.90
55830;DHT22;41759;53.330;6.002;2023-09-19T16:26:15;16.90;99.90
55830;DHT22;41759;53.330;6.002;2023-09-19T16:28:44;16.90;99.90
55830;DHT22;41759;53.330;6.002;2023-09-19T16:31:10;16.90;99.90
55830;DHT22;41759;53.330;6.002;2023-09-19T16:33:38;16.80;99.90
55830;DHT22;41759;53.330;6.002;2023-09-19T16:36:13;16.80;99.90
55830;DHT22;41759;53.330;6.002;2023-09-19T16:38:39;16.80;99.90
55830;DHT22;41759;53.330;6.002;2023-09-19T16:41:06;16.80;99.90
55830;DHT22;41759;53.330;6.002;2023-09-19T16:43:32;16.80;99.90